sensor_id;sensor_type;location;lat;lon;timestamp;P1;durP1;ratioP1;P2;durP2;ratioP2
45338;SDS011;31071;51.478;5.710;2023-02-04T00:01:38;3.90;;;1.50;;
45338;SDS011;31071;51.478;5.710;2023-02-04T00:04:03;4.80;;;1.50;;
45338;SDS011;31071;51.478;5.710;2023-02-04T00:06:29;3.78;;;1.60;;
45338;SDS011;31071;51.478;5.710;2023-02-04T00:08:54;4.10;;;1.70;;
45338;SDS011;31071;51.478;5.710;2023-02-04T00:11:20;3.20;;;1.60;;
45338;SDS011;31071;51.478;5.710;2023-02-04T00:13:45;4.20;;;1.60;;
45338;SDS011;31071;51.478;5.710;2023-02-04T00:16:11;3.70;;;1.48;;
45338;SDS011;31071;51.478;5.710;2023-02-04T00:18:37;4.00;;;1.35;;
45338;SDS011;31071;51.478;5.710;2023-02-04T00:21:02;4.25;;;1.75;;
45338;SDS011;31071;51.478;5.710;2023-02-04T00:23:28;3.42;;;1.55;;
45338;SDS011;31071;51.478;5.710;2023-02-04T00:25:54;3.25;;;1.27;;
45338;SDS011;31071;51.478;5.710;2023-02-04T00:28:19;4.03;;;1.45;;
45338;SDS011;31071;51.478;5.710;2023-02-04T00:30:45;4.22;;;1.50;;
45338;SDS011;31071;51.478;5.710;2023-02-04T00:33:11;4.93;;;1.80;;
45338;SDS011;31071;51.478;5.710;2023-02-04T00:35:37;3.22;;;1.42;;
45338;SDS011;31071;51.478;5.710;2023-02-04T00:38:03;3.72;;;1.50;;
45338;SDS011;31071;51.478;5.710;2023-02-04T00:40:29;3.42;;;1.45;;
45338;SDS011;31071;51.478;5.710;2023-02-04T00:42:54;4.07;;;1.60;;
45338;SDS011;31071;51.478;5.710;2023-02-04T00:45:20;5.93;;;1.20;;
45338;SDS011;31071;51.478;5.710;2023-02-04T00:47:45;3.40;;;1.38;;
45338;SDS011;31071;51.478;5.710;2023-02-04T00:50:11;4.05;;;1.60;;
45338;SDS011;31071;51.478;5.710;2023-02-04T00:52:36;5.20;;;1.90;;
45338;SDS011;31071;51.478;5.710;2023-02-04T00:55:02;3.17;;;1.55;;
45338;SDS011;31071;51.478;5.710;2023-02-04T00:57:28;4.15;;;1.48;;
45338;SDS011;31071;51.478;5.710;2023-02-04T00:59:54;4.50;;;1.85;;
45338;SDS011;31071;51.478;5.710;2023-02-04T01:02:20;5.13;;;1.63;;
45338;SDS011;31071;51.478;5.710;2023-02-04T01:04:45;4.30;;;1.80;;
45338;SDS011;31071;51.478;5.710;2023-02-04T01:07:11;3.03;;;1.10;;
45338;SDS011;31071;51.478;5.710;2023-02-04T01:09:36;3.40;;;1.40;;
45338;SDS011;31071;51.478;5.710;2023-02-04T01:12:02;4.03;;;1.40;;
45338;SDS011;31071;51.478;5.710;2023-02-04T01:14:27;4.40;;;1.70;;
45338;SDS011;31071;51.478;5.710;2023-02-04T01:16:53;3.60;;;1.42;;
45338;SDS011;31071;51.478;5.710;2023-02-04T01:19:18;4.25;;;1.63;;
45338;SDS011;31071;51.478;5.710;2023-02-04T01:21:45;4.63;;;1.50;;
45338;SDS011;31071;51.478;5.710;2023-02-04T01:24:10;3.45;;;1.60;;
45338;SDS011;31071;51.478;5.710;2023-02-04T01:26:36;2.85;;;1.48;;
45338;SDS011;31071;51.478;5.710;2023-02-04T01:29:01;3.45;;;1.50;;
45338;SDS011;31071;51.478;5.710;2023-02-04T01:31:27;5.57;;;1.55;;
45338;SDS011;31071;51.478;5.710;2023-02-04T01:33:55;5.13;;;1.50;;
45338;SDS011;31071;51.478;5.710;2023-02-04T01:36:20;2.78;;;1.20;;
45338;SDS011;31071;51.478;5.710;2023-02-04T01:38:47;3.22;;;1.25;;
45338;SDS011;31071;51.478;5.710;2023-02-04T01:41:13;3.08;;;1.40;;
45338;SDS011;31071;51.478;5.710;2023-02-04T01:43:39;3.63;;;1.58;;
45338;SDS011;31071;51.478;5.710;2023-02-04T01:46:05;3.25;;;1.58;;
45338;SDS011;31071;51.478;5.710;2023-02-04T01:48:31;4.55;;;1.60;;
45338;SDS011;31071;51.478;5.710;2023-02-04T01:51:16;4.03;;;1.50;;
45338;SDS011;31071;51.478;5.710;2023-02-04T01:53:50;3.92;;;1.52;;
45338;SDS011;31071;51.478;5.710;2023-02-04T01:56:17;3.47;;;1.45;;
45338;SDS011;31071;51.478;5.710;2023-02-04T01:58:45;4.88;;;1.50;;
45338;SDS011;31071;51.478;5.710;2023-02-04T02:01:32;3.78;;;1.52;;
45338;SDS011;31071;51.478;5.710;2023-02-04T02:04:03;3.50;;;1.50;;
45338;SDS011;31071;51.478;5.710;2023-02-04T02:06:29;3.83;;;1.40;;
45338;SDS011;31071;51.478;5.710;2023-02-04T02:08:55;3.08;;;1.45;;
45338;SDS011;31071;51.478;5.710;2023-02-04T02:11:22;3.78;;;1.27;;
45338;SDS011;31071;51.478;5.710;2023-02-04T02:13:48;5.72;;;1.42;;
45338;SDS011;31071;51.478;5.710;2023-02-04T02:16:14;3.90;;;1.38;;
45338;SDS011;31071;51.478;5.710;2023-02-04T02:18:39;3.22;;;1.40;;
45338;SDS011;31071;51.478;5.710;2023-02-04T02:21:05;4.43;;;1.58;;
45338;SDS011;31071;51.478;5.710;2023-02-04T02:26:52;2.78;;;1.33;;
45338;SDS011;31071;51.478;5.710;2023-02-04T02:29:19;4.20;;;1.30;;
45338;SDS011;31071;51.478;5.710;2023-02-04T02:31:45;4.15;;;1.60;;
45338;SDS011;31071;51.478;5.710;2023-02-04T02:34:11;3.38;;;1.40;;
45338;SDS011;31071;51.478;5.710;2023-02-04T02:36:36;2.85;;;1.30;;
45338;SDS011;31071;51.478;5.710;2023-02-04T02:39:02;6.07;;;1.60;;
45338;SDS011;31071;51.478;5.710;2023-02-04T02:41:28;3.38;;;1.33;;
45338;SDS011;31071;51.478;5.710;2023-02-04T02:43:53;3.65;;;1.25;;
45338;SDS011;31071;51.478;5.710;2023-02-04T02:46:19;4.47;;;1.33;;
45338;SDS011;31071;51.478;5.710;2023-02-04T02:48:45;2.90;;;1.10;;
45338;SDS011;31071;51.478;5.710;2023-02-04T02:51:10;4.97;;;1.65;;
45338;SDS011;31071;51.478;5.710;2023-02-04T02:53:36;3.83;;;1.27;;
45338;SDS011;31071;51.478;5.710;2023-02-04T02:56:01;4.97;;;1.73;;
45338;SDS011;31071;51.478;5.710;2023-02-04T02:58:30;3.92;;;1.40;;
45338;SDS011;31071;51.478;5.710;2023-02-04T03:01:01;3.80;;;1.50;;
45338;SDS011;31071;51.478;5.710;2023-02-04T03:03:30;4.70;;;1.60;;
45338;SDS011;31071;51.478;5.710;2023-02-04T03:06:04;4.95;;;1.50;;
45338;SDS011;31071;51.478;5.710;2023-02-04T03:10:58;2.92;;;1.35;;
45338;SDS011;31071;51.478;5.710;2023-02-04T03:13:24;5.40;;;1.45;;
45338;SDS011;31071;51.478;5.710;2023-02-04T03:15:50;6.03;;;1.40;;
45338;SDS011;31071;51.478;5.710;2023-02-04T03:18:17;2.72;;;1.30;;
45338;SDS011;31071;51.478;5.710;2023-02-04T03:20:44;4.32;;;1.48;;
45338;SDS011;31071;51.478;5.710;2023-02-04T03:23:10;4.57;;;1.60;;
45338;SDS011;31071;51.478;5.710;2023-02-04T03:25:36;4.03;;;1.35;;
45338;SDS011;31071;51.478;5.710;2023-02-04T03:28:03;5.10;;;1.80;;
45338;SDS011;31071;51.478;5.710;2023-02-04T03:30:29;4.28;;;1.25;;
45338;SDS011;31071;51.478;5.710;2023-02-04T03:32:55;3.38;;;1.77;;
45338;SDS011;31071;51.478;5.710;2023-02-04T03:35:21;3.90;;;1.33;;
45338;SDS011;31071;51.478;5.710;2023-02-04T03:37:46;3.70;;;1.65;;
45338;SDS011;31071;51.478;5.710;2023-02-04T03:40:12;2.90;;;1.35;;
45338;SDS011;31071;51.478;5.710;2023-02-04T03:42:38;5.45;;;1.60;;
45338;SDS011;31071;51.478;5.710;2023-02-04T03:45:04;2.88;;;1.20;;
45338;SDS011;31071;51.478;5.710;2023-02-04T03:47:29;3.72;;;1.65;;
45338;SDS011;31071;51.478;5.710;2023-02-04T03:49:55;4.68;;;1.58;;
45338;SDS011;31071;51.478;5.710;2023-02-04T03:52:20;3.05;;;1.38;;
45338;SDS011;31071;51.478;5.710;2023-02-04T03:54:46;3.47;;;1.33;;
45338;SDS011;31071;51.478;5.710;2023-02-04T03:57:11;4.60;;;1.35;;
45338;SDS011;31071;51.478;5.710;2023-02-04T03:59:37;4.55;;;1.50;;
45338;SDS011;31071;51.478;5.710;2023-02-04T04:02:02;4.22;;;1.30;;
45338;SDS011;31071;51.478;5.710;2023-02-04T04:04:28;3.88;;;1.65;;
45338;SDS011;31071;51.478;5.710;2023-02-04T04:06:54;4.20;;;1.60;;
45338;SDS011;31071;51.478;5.710;2023-02-04T04:09:20;5.20;;;1.67;;
45338;SDS011;31071;51.478;5.710;2023-02-04T04:11:45;4.97;;;1.70;;
45338;SDS011;31071;51.478;5.710;2023-02-04T04:14:11;2.53;;;1.25;;
45338;SDS011;31071;51.478;5.710;2023-02-04T04:16:36;3.38;;;1.23;;
45338;SDS011;31071;51.478;5.710;2023-02-04T04:19:02;3.22;;;1.40;;
45338;SDS011;31071;51.478;5.710;2023-02-04T04:21:27;5.15;;;1.70;;
45338;SDS011;31071;51.478;5.710;2023-02-04T04:23:53;4.80;;;1.52;;
45338;SDS011;31071;51.478;5.710;2023-02-04T04:26:18;4.40;;;1.50;;
45338;SDS011;31071;51.478;5.710;2023-02-04T04:28:44;3.92;;;1.65;;
45338;SDS011;31071;51.478;5.710;2023-02-04T04:31:09;4.13;;;1.73;;
45338;SDS011;31071;51.478;5.710;2023-02-04T04:33:35;3.65;;;1.70;;
45338;SDS011;31071;51.478;5.710;2023-02-04T04:36:00;4.18;;;1.85;;
45338;SDS011;31071;51.478;5.710;2023-02-04T04:38:26;4.22;;;1.63;;
45338;SDS011;31071;51.478;5.710;2023-02-04T04:40:51;3.80;;;1.70;;
45338;SDS011;31071;51.478;5.710;2023-02-04T04:43:17;3.90;;;1.77;;
45338;SDS011;31071;51.478;5.710;2023-02-04T04:45:43;5.15;;;1.88;;
45338;SDS011;31071;51.478;5.710;2023-02-04T04:48:09;3.58;;;1.30;;
45338;SDS011;31071;51.478;5.710;2023-02-04T04:50:34;3.40;;;1.65;;
45338;SDS011;31071;51.478;5.710;2023-02-04T04:53:01;4.00;;;1.42;;
45338;SDS011;31071;51.478;5.710;2023-02-04T04:55:26;4.70;;;1.85;;
45338;SDS011;31071;51.478;5.710;2023-02-04T04:57:52;4.10;;;1.30;;
45338;SDS011;31071;51.478;5.710;2023-02-04T05:00:18;4.57;;;1.80;;
45338;SDS011;31071;51.478;5.710;2023-02-04T05:02:44;3.55;;;1.65;;
45338;SDS011;31071;51.478;5.710;2023-02-04T05:05:10;5.97;;;1.67;;
45338;SDS011;31071;51.478;5.710;2023-02-04T05:07:37;3.28;;;1.30;;
45338;SDS011;31071;51.478;5.710;2023-02-04T05:10:02;5.10;;;1.60;;
45338;SDS011;31071;51.478;5.710;2023-02-04T05:12:28;4.88;;;1.63;;
45338;SDS011;31071;51.478;5.710;2023-02-04T05:14:54;4.75;;;1.63;;
45338;SDS011;31071;51.478;5.710;2023-02-04T05:17:19;5.80;;;1.90;;
45338;SDS011;31071;51.478;5.710;2023-02-04T05:19:45;4.15;;;1.20;;
45338;SDS011;31071;51.478;5.710;2023-02-04T05:22:10;3.88;;;1.80;;
45338;SDS011;31071;51.478;5.710;2023-02-04T05:24:36;5.75;;;1.45;;
45338;SDS011;31071;51.478;5.710;2023-02-04T05:27:01;5.82;;;1.52;;
45338;SDS011;31071;51.478;5.710;2023-02-04T05:29:27;4.65;;;1.88;;
45338;SDS011;31071;51.478;5.710;2023-02-04T05:31:53;5.78;;;1.42;;
45338;SDS011;31071;51.478;5.710;2023-02-04T05:34:18;6.75;;;1.88;;
45338;SDS011;31071;51.478;5.710;2023-02-04T05:36:44;5.00;;;1.83;;
45338;SDS011;31071;51.478;5.710;2023-02-04T05:39:09;3.63;;;1.40;;
45338;SDS011;31071;51.478;5.710;2023-02-04T05:41:35;4.50;;;1.52;;
45338;SDS011;31071;51.478;5.710;2023-02-04T05:44:01;4.43;;;1.67;;
45338;SDS011;31071;51.478;5.710;2023-02-04T05:46:27;4.90;;;1.67;;
45338;SDS011;31071;51.478;5.710;2023-02-04T05:48:52;3.83;;;1.92;;
45338;SDS011;31071;51.478;5.710;2023-02-04T05:51:18;5.78;;;1.70;;
45338;SDS011;31071;51.478;5.710;2023-02-04T05:53:43;4.10;;;1.63;;
45338;SDS011;31071;51.478;5.710;2023-02-04T05:56:09;4.32;;;1.50;;
45338;SDS011;31071;51.478;5.710;2023-02-04T05:58:34;6.80;;;1.80;;
45338;SDS011;31071;51.478;5.710;2023-02-04T06:01:00;4.43;;;1.80;;
45338;SDS011;31071;51.478;5.710;2023-02-04T06:03:27;5.28;;;1.90;;
45338;SDS011;31071;51.478;5.710;2023-02-04T06:05:53;5.90;;;1.80;;
45338;SDS011;31071;51.478;5.710;2023-02-04T06:08:19;4.70;;;1.83;;
45338;SDS011;31071;51.478;5.710;2023-02-04T06:10:45;5.05;;;1.67;;
45338;SDS011;31071;51.478;5.710;2023-02-04T06:13:10;5.80;;;1.80;;
45338;SDS011;31071;51.478;5.710;2023-02-04T06:15:36;5.10;;;1.92;;
45338;SDS011;31071;51.478;5.710;2023-02-04T06:18:01;4.70;;;1.85;;
45338;SDS011;31071;51.478;5.710;2023-02-04T06:20:27;5.90;;;1.75;;
45338;SDS011;31071;51.478;5.710;2023-02-04T06:22:52;8.85;;;2.38;;
45338;SDS011;31071;51.478;5.710;2023-02-04T06:25:18;5.53;;;1.95;;
45338;SDS011;31071;51.478;5.710;2023-02-04T06:27:44;5.80;;;1.90;;
45338;SDS011;31071;51.478;5.710;2023-02-04T06:30:10;5.47;;;2.08;;
45338;SDS011;31071;51.478;5.710;2023-02-04T06:32:36;5.63;;;1.95;;
45338;SDS011;31071;51.478;5.710;2023-02-04T06:35:02;4.03;;;1.77;;
45338;SDS011;31071;51.478;5.710;2023-02-04T06:37:28;4.43;;;1.88;;
45338;SDS011;31071;51.478;5.710;2023-02-04T06:39:53;5.05;;;1.85;;
45338;SDS011;31071;51.478;5.710;2023-02-04T06:42:21;5.88;;;1.98;;
45338;SDS011;31071;51.478;5.710;2023-02-04T06:44:47;4.88;;;1.77;;
45338;SDS011;31071;51.478;5.710;2023-02-04T06:47:12;5.25;;;1.80;;
45338;SDS011;31071;51.478;5.710;2023-02-04T06:49:38;6.30;;;2.42;;
45338;SDS011;31071;51.478;5.710;2023-02-04T06:52:03;7.13;;;2.25;;
45338;SDS011;31071;51.478;5.710;2023-02-04T06:54:29;6.03;;;2.40;;
45338;SDS011;31071;51.478;5.710;2023-02-04T06:56:55;3.63;;;1.65;;
45338;SDS011;31071;51.478;5.710;2023-02-04T06:59:27;4.95;;;1.90;;
45338;SDS011;31071;51.478;5.710;2023-02-04T07:01:56;3.78;;;2.00;;
45338;SDS011;31071;51.478;5.710;2023-02-04T07:04:21;4.30;;;1.92;;
45338;SDS011;31071;51.478;5.710;2023-02-04T07:06:47;6.70;;;1.95;;
45338;SDS011;31071;51.478;5.710;2023-02-04T07:09:12;5.88;;;2.13;;
45338;SDS011;31071;51.478;5.710;2023-02-04T07:11:38;4.40;;;1.73;;
45338;SDS011;31071;51.478;5.710;2023-02-04T07:14:03;5.15;;;2.10;;
45338;SDS011;31071;51.478;5.710;2023-02-04T07:16:29;6.15;;;2.05;;
45338;SDS011;31071;51.478;5.710;2023-02-04T07:18:54;5.22;;;1.85;;
45338;SDS011;31071;51.478;5.710;2023-02-04T07:21:20;4.75;;;2.00;;
45338;SDS011;31071;51.478;5.710;2023-02-04T07:23:45;3.65;;;1.88;;
45338;SDS011;31071;51.478;5.710;2023-02-04T07:26:11;6.05;;;2.22;;
45338;SDS011;31071;51.478;5.710;2023-02-04T07:28:37;5.90;;;2.00;;
45338;SDS011;31071;51.478;5.710;2023-02-04T07:31:05;6.20;;;2.22;;
45338;SDS011;31071;51.478;5.710;2023-02-04T07:33:30;2.70;;;1.92;;
45338;SDS011;31071;51.478;5.710;2023-02-04T07:35:56;5.10;;;1.83;;
45338;SDS011;31071;51.478;5.710;2023-02-04T07:38:21;5.20;;;1.85;;
45338;SDS011;31071;51.478;5.710;2023-02-04T07:40:47;4.55;;;1.83;;
45338;SDS011;31071;51.478;5.710;2023-02-04T07:43:12;4.95;;;2.17;;
45338;SDS011;31071;51.478;5.710;2023-02-04T07:45:38;4.78;;;1.90;;
45338;SDS011;31071;51.478;5.710;2023-02-04T07:48:03;6.85;;;2.08;;
45338;SDS011;31071;51.478;5.710;2023-02-04T07:50:29;4.45;;;2.00;;
45338;SDS011;31071;51.478;5.710;2023-02-04T07:52:55;5.45;;;1.55;;
45338;SDS011;31071;51.478;5.710;2023-02-04T07:55:20;3.60;;;2.03;;
45338;SDS011;31071;51.478;5.710;2023-02-04T07:57:46;5.10;;;2.20;;
45338;SDS011;31071;51.478;5.710;2023-02-04T08:00:11;3.42;;;2.17;;
45338;SDS011;31071;51.478;5.710;2023-02-04T08:02:38;6.65;;;2.45;;
45338;SDS011;31071;51.478;5.710;2023-02-04T08:05:05;5.10;;;2.08;;
45338;SDS011;31071;51.478;5.710;2023-02-04T08:07:31;5.25;;;2.22;;
45338;SDS011;31071;51.478;5.710;2023-02-04T08:09:56;4.93;;;2.47;;
45338;SDS011;31071;51.478;5.710;2023-02-04T08:12:22;6.18;;;2.20;;
45338;SDS011;31071;51.478;5.710;2023-02-04T08:14:47;4.45;;;1.95;;
45338;SDS011;31071;51.478;5.710;2023-02-04T08:17:13;4.55;;;2.30;;
45338;SDS011;31071;51.478;5.710;2023-02-04T08:19:38;4.47;;;2.17;;
45338;SDS011;31071;51.478;5.710;2023-02-04T08:22:04;6.05;;;2.30;;
45338;SDS011;31071;51.478;5.710;2023-02-04T08:24:30;4.43;;;2.05;;
45338;SDS011;31071;51.478;5.710;2023-02-04T08:26:55;4.55;;;2.30;;
45338;SDS011;31071;51.478;5.710;2023-02-04T08:29:22;7.30;;;2.60;;
45338;SDS011;31071;51.478;5.710;2023-02-04T08:31:49;5.18;;;2.35;;
45338;SDS011;31071;51.478;5.710;2023-02-04T08:34:15;5.30;;;2.53;;
45338;SDS011;31071;51.478;5.710;2023-02-04T08:36:40;3.17;;;2.10;;
45338;SDS011;31071;51.478;5.710;2023-02-04T08:39:08;4.78;;;2.50;;
45338;SDS011;31071;51.478;5.710;2023-02-04T08:41:34;5.38;;;2.50;;
45338;SDS011;31071;51.478;5.710;2023-02-04T08:43:59;6.53;;;2.78;;
45338;SDS011;31071;51.478;5.710;2023-02-04T08:46:25;6.00;;;2.35;;
45338;SDS011;31071;51.478;5.710;2023-02-04T08:48:50;4.65;;;2.40;;
45338;SDS011;31071;51.478;5.710;2023-02-04T08:51:16;5.95;;;2.50;;
45338;SDS011;31071;51.478;5.710;2023-02-04T08:53:41;5.28;;;2.60;;
45338;SDS011;31071;51.478;5.710;2023-02-04T08:56:07;6.15;;;2.35;;
45338;SDS011;31071;51.478;5.710;2023-02-04T08:58:34;3.75;;;2.20;;
45338;SDS011;31071;51.478;5.710;2023-02-04T09:01:00;5.82;;;2.60;;
45338;SDS011;31071;51.478;5.710;2023-02-04T09:03:25;3.78;;;2.38;;
45338;SDS011;31071;51.478;5.710;2023-02-04T09:05:51;6.22;;;2.67;;
45338;SDS011;31071;51.478;5.710;2023-02-04T09:08:16;5.03;;;2.38;;
45338;SDS011;31071;51.478;5.710;2023-02-04T09:10:42;5.65;;;2.72;;
45338;SDS011;31071;51.478;5.710;2023-02-04T09:13:07;4.63;;;2.63;;
45338;SDS011;31071;51.478;5.710;2023-02-04T09:15:35;5.28;;;2.35;;
45338;SDS011;31071;51.478;5.710;2023-02-04T09:18:01;6.57;;;2.65;;
45338;SDS011;31071;51.478;5.710;2023-02-04T09:20:35;6.65;;;2.80;;
45338;SDS011;31071;51.478;5.710;2023-02-04T09:23:03;3.92;;;2.17;;
45338;SDS011;31071;51.478;5.710;2023-02-04T09:25:31;6.78;;;2.60;;
45338;SDS011;31071;51.478;5.710;2023-02-04T09:27:56;4.82;;;2.50;;
45338;SDS011;31071;51.478;5.710;2023-02-04T09:30:21;4.25;;;2.60;;
45338;SDS011;31071;51.478;5.710;2023-02-04T09:32:47;7.40;;;2.95;;
45338;SDS011;31071;51.478;5.710;2023-02-04T09:35:13;4.97;;;2.67;;
45338;SDS011;31071;51.478;5.710;2023-02-04T09:37:38;5.97;;;3.03;;
45338;SDS011;31071;51.478;5.710;2023-02-04T09:40:04;5.47;;;2.65;;
45338;SDS011;31071;51.478;5.710;2023-02-04T09:42:30;6.15;;;3.10;;
45338;SDS011;31071;51.478;5.710;2023-02-04T09:44:55;8.48;;;2.88;;
45338;SDS011;31071;51.478;5.710;2023-02-04T09:47:22;7.45;;;3.20;;
45338;SDS011;31071;51.478;5.710;2023-02-04T09:49:49;6.45;;;2.85;;
45338;SDS011;31071;51.478;5.710;2023-02-04T09:52:15;6.38;;;2.80;;
45338;SDS011;31071;51.478;5.710;2023-02-04T09:54:43;5.93;;;2.60;;
45338;SDS011;31071;51.478;5.710;2023-02-04T09:57:16;7.75;;;3.22;;
45338;SDS011;31071;51.478;5.710;2023-02-04T09:59:45;6.78;;;2.92;;
45338;SDS011;31071;51.478;5.710;2023-02-04T10:02:15;5.05;;;3.00;;
45338;SDS011;31071;51.478;5.710;2023-02-04T10:04:46;6.10;;;3.33;;
45338;SDS011;31071;51.478;5.710;2023-02-04T10:07:21;5.80;;;2.92;;
45338;SDS011;31071;51.478;5.710;2023-02-04T10:09:49;6.63;;;3.15;;
45338;SDS011;31071;51.478;5.710;2023-02-04T10:12:15;7.05;;;2.92;;
45338;SDS011;31071;51.478;5.710;2023-02-04T10:14:41;5.57;;;2.92;;
45338;SDS011;31071;51.478;5.710;2023-02-04T10:17:07;5.85;;;2.95;;
45338;SDS011;31071;51.478;5.710;2023-02-04T10:19:35;5.95;;;2.60;;
45338;SDS011;31071;51.478;5.710;2023-02-04T10:22:01;5.40;;;2.95;;
45338;SDS011;31071;51.478;5.710;2023-02-04T10:24:28;5.88;;;2.83;;
45338;SDS011;31071;51.478;5.710;2023-02-04T10:27:04;7.97;;;3.30;;
45338;SDS011;31071;51.478;5.710;2023-02-04T10:29:32;6.05;;;2.55;;
45338;SDS011;31071;51.478;5.710;2023-02-04T10:31:57;7.45;;;2.75;;
45338;SDS011;31071;51.478;5.710;2023-02-04T10:34:31;6.00;;;2.92;;
45338;SDS011;31071;51.478;5.710;2023-02-04T10:36:58;6.00;;;2.83;;
45338;SDS011;31071;51.478;5.710;2023-02-04T10:39:28;5.97;;;2.70;;
45338;SDS011;31071;51.478;5.710;2023-02-04T10:42:00;9.30;;;3.13;;
45338;SDS011;31071;51.478;5.710;2023-02-04T10:44:30;6.72;;;2.80;;
45338;SDS011;31071;51.478;5.710;2023-02-04T10:47:01;5.80;;;2.55;;
45338;SDS011;31071;51.478;5.710;2023-02-04T10:49:28;5.20;;;2.47;;
45338;SDS011;31071;51.478;5.710;2023-02-04T10:51:54;4.97;;;2.50;;
45338;SDS011;31071;51.478;5.710;2023-02-04T10:54:20;5.28;;;2.92;;
45338;SDS011;31071;51.478;5.710;2023-02-04T10:56:56;5.63;;;2.95;;
45338;SDS011;31071;51.478;5.710;2023-02-04T10:59:23;7.03;;;2.92;;
45338;SDS011;31071;51.478;5.710;2023-02-04T11:01:56;5.25;;;2.67;;
45338;SDS011;31071;51.478;5.710;2023-02-04T11:04:23;7.63;;;3.03;;
45338;SDS011;31071;51.478;5.710;2023-02-04T11:06:50;6.68;;;3.13;;
45338;SDS011;31071;51.478;5.710;2023-02-04T11:09:16;7.03;;;2.60;;
45338;SDS011;31071;51.478;5.710;2023-02-04T11:11:46;6.05;;;2.85;;
45338;SDS011;31071;51.478;5.710;2023-02-04T11:14:28;5.57;;;2.60;;
45338;SDS011;31071;51.478;5.710;2023-02-04T11:16:55;7.22;;;2.95;;
45338;SDS011;31071;51.478;5.710;2023-02-04T11:25:29;6.50;;;3.08;;
45338;SDS011;31071;51.478;5.710;2023-02-04T11:27:57;5.93;;;3.17;;
45338;SDS011;31071;51.478;5.710;2023-02-04T11:30:23;5.10;;;2.60;;
45338;SDS011;31071;51.478;5.710;2023-02-04T11:33:02;4.47;;;2.40;;
45338;SDS011;31071;51.478;5.710;2023-02-04T11:35:30;6.20;;;2.30;;
45338;SDS011;31071;51.478;5.710;2023-02-04T11:37:56;5.53;;;2.88;;
45338;SDS011;31071;51.478;5.710;2023-02-04T11:40:32;6.15;;;3.08;;
45338;SDS011;31071;51.478;5.710;2023-02-04T11:43:08;5.88;;;2.58;;
45338;SDS011;31071;51.478;5.710;2023-02-04T11:45:36;5.30;;;2.30;;
45338;SDS011;31071;51.478;5.710;2023-02-04T11:48:08;5.57;;;2.58;;
45338;SDS011;31071;51.478;5.710;2023-02-04T11:51:00;6.15;;;2.50;;
45338;SDS011;31071;51.478;5.710;2023-02-04T11:53:31;5.47;;;2.25;;
45338;SDS011;31071;51.478;5.710;2023-02-04T11:55:57;7.82;;;2.47;;
45338;SDS011;31071;51.478;5.710;2023-02-04T11:58:23;8.27;;;2.63;;
45338;SDS011;31071;51.478;5.710;2023-02-04T12:00:50;7.43;;;2.85;;
45338;SDS011;31071;51.478;5.710;2023-02-04T12:03:27;4.63;;;2.47;;
45338;SDS011;31071;51.478;5.710;2023-02-04T12:08:35;5.78;;;2.50;;
45338;SDS011;31071;51.478;5.710;2023-02-04T12:11:10;6.03;;;2.58;;
45338;SDS011;31071;51.478;5.710;2023-02-04T12:13:50;5.70;;;2.33;;
45338;SDS011;31071;51.478;5.710;2023-02-04T12:16:18;3.50;;;2.13;;
45338;SDS011;31071;51.478;5.710;2023-02-04T12:18:44;4.72;;;2.28;;
45338;SDS011;31071;51.478;5.710;2023-02-04T12:21:10;5.10;;;2.60;;
45338;SDS011;31071;51.478;5.710;2023-02-04T12:23:35;6.65;;;2.60;;
45338;SDS011;31071;51.478;5.710;2023-02-04T12:26:01;5.60;;;2.40;;
45338;SDS011;31071;51.478;5.710;2023-02-04T12:28:27;6.25;;;2.50;;
45338;SDS011;31071;51.478;5.710;2023-02-04T12:30:53;5.07;;;2.25;;
45338;SDS011;31071;51.478;5.710;2023-02-04T12:33:19;4.65;;;2.20;;
45338;SDS011;31071;51.478;5.710;2023-02-04T12:35:46;5.43;;;2.45;;
45338;SDS011;31071;51.478;5.710;2023-02-04T12:38:12;4.68;;;2.00;;
45338;SDS011;31071;51.478;5.710;2023-02-04T12:40:37;4.03;;;2.47;;
45338;SDS011;31071;51.478;5.710;2023-02-04T12:43:03;7.53;;;2.40;;
45338;SDS011;31071;51.478;5.710;2023-02-04T12:45:29;7.22;;;2.67;;
45338;SDS011;31071;51.478;5.710;2023-02-04T12:47:54;3.72;;;2.15;;
45338;SDS011;31071;51.478;5.710;2023-02-04T12:50:19;4.53;;;2.40;;
45338;SDS011;31071;51.478;5.710;2023-02-04T12:52:52;4.85;;;2.08;;
45338;SDS011;31071;51.478;5.710;2023-02-04T12:55:23;6.57;;;2.65;;
45338;SDS011;31071;51.478;5.710;2023-02-04T12:57:50;3.90;;;2.00;;
45338;SDS011;31071;51.478;5.710;2023-02-04T13:00:17;5.95;;;2.28;;
45338;SDS011;31071;51.478;5.710;2023-02-04T13:02:44;6.25;;;2.30;;
45338;SDS011;31071;51.478;5.710;2023-02-04T13:05:10;5.88;;;2.05;;
45338;SDS011;31071;51.478;5.710;2023-02-04T13:07:36;4.90;;;2.65;;
45338;SDS011;31071;51.478;5.710;2023-02-04T13:10:04;5.90;;;2.55;;
45338;SDS011;31071;51.478;5.710;2023-02-04T13:12:30;4.20;;;2.03;;
45338;SDS011;31071;51.478;5.710;2023-02-04T13:14:56;4.93;;;2.38;;
45338;SDS011;31071;51.478;5.710;2023-02-04T13:17:21;7.00;;;2.53;;
45338;SDS011;31071;51.478;5.710;2023-02-04T13:19:47;5.57;;;2.40;;
45338;SDS011;31071;51.478;5.710;2023-02-04T13:22:13;4.95;;;2.05;;
45338;SDS011;31071;51.478;5.710;2023-02-04T13:24:38;4.70;;;2.25;;
45338;SDS011;31071;51.478;5.710;2023-02-04T13:27:03;3.33;;;2.10;;
45338;SDS011;31071;51.478;5.710;2023-02-04T13:29:29;3.28;;;1.85;;
45338;SDS011;31071;51.478;5.710;2023-02-04T13:31:54;4.97;;;2.10;;
45338;SDS011;31071;51.478;5.710;2023-02-04T13:34:20;7.40;;;2.42;;
45338;SDS011;31071;51.478;5.710;2023-02-04T13:36:45;4.75;;;2.50;;
45338;SDS011;31071;51.478;5.710;2023-02-04T13:39:12;5.60;;;2.35;;
45338;SDS011;31071;51.478;5.710;2023-02-04T13:41:37;5.22;;;1.95;;
45338;SDS011;31071;51.478;5.710;2023-02-04T13:44:03;4.43;;;2.00;;
45338;SDS011;31071;51.478;5.710;2023-02-04T13:46:29;3.67;;;2.17;;
45338;SDS011;31071;51.478;5.710;2023-02-04T13:48:55;7.10;;;2.25;;
45338;SDS011;31071;51.478;5.710;2023-02-04T13:51:20;5.28;;;2.00;;
45338;SDS011;31071;51.478;5.710;2023-02-04T13:53:46;6.18;;;2.25;;
45338;SDS011;31071;51.478;5.710;2023-02-04T13:56:12;4.50;;;2.10;;
45338;SDS011;31071;51.478;5.710;2023-02-04T13:58:37;6.50;;;1.90;;
45338;SDS011;31071;51.478;5.710;2023-02-04T14:01:07;4.57;;;2.20;;
45338;SDS011;31071;51.478;5.710;2023-02-04T14:03:34;5.70;;;2.05;;
45338;SDS011;31071;51.478;5.710;2023-02-04T14:05:59;4.82;;;2.38;;
45338;SDS011;31071;51.478;5.710;2023-02-04T14:08:25;5.03;;;2.28;;
45338;SDS011;31071;51.478;5.710;2023-02-04T14:10:50;4.57;;;1.98;;
45338;SDS011;31071;51.478;5.710;2023-02-04T14:13:16;5.53;;;2.17;;
45338;SDS011;31071;51.478;5.710;2023-02-04T14:15:41;3.55;;;1.75;;
45338;SDS011;31071;51.478;5.710;2023-02-04T14:18:07;8.07;;;2.20;;
45338;SDS011;31071;51.478;5.710;2023-02-04T14:20:33;4.75;;;2.22;;
45338;SDS011;31071;51.478;5.710;2023-02-04T14:22:59;4.68;;;2.20;;
45338;SDS011;31071;51.478;5.710;2023-02-04T14:25:25;4.97;;;1.92;;
45338;SDS011;31071;51.478;5.710;2023-02-04T14:27:50;5.65;;;1.90;;
45338;SDS011;31071;51.478;5.710;2023-02-04T14:30:23;6.35;;;2.58;;
45338;SDS011;31071;51.478;5.710;2023-02-04T14:32:50;5.22;;;2.17;;
45338;SDS011;31071;51.478;5.710;2023-02-04T14:35:17;5.32;;;1.98;;
45338;SDS011;31071;51.478;5.710;2023-02-04T14:37:43;4.60;;;2.00;;
45338;SDS011;31071;51.478;5.710;2023-02-04T14:40:09;5.50;;;2.15;;
45338;SDS011;31071;51.478;5.710;2023-02-04T14:42:36;4.55;;;1.90;;
45338;SDS011;31071;51.478;5.710;2023-02-04T14:45:03;7.22;;;2.20;;
45338;SDS011;31071;51.478;5.710;2023-02-04T14:47:36;5.75;;;2.13;;
45338;SDS011;31071;51.478;5.710;2023-02-04T14:50:03;7.28;;;2.60;;
45338;SDS011;31071;51.478;5.710;2023-02-04T14:52:30;6.60;;;2.20;;
45338;SDS011;31071;51.478;5.710;2023-02-04T14:54:56;4.88;;;2.20;;
45338;SDS011;31071;51.478;5.710;2023-02-04T14:57:22;5.63;;;1.90;;
45338;SDS011;31071;51.478;5.710;2023-02-04T14:59:47;7.45;;;2.25;;